Time,TemperatureF,DewpointF,PressureIn,WindDirection,WindDirectionDegrees,WindSpeedMPH,WindSpeedGustMPH,Humidity,HourlyPrecipIn,Conditions,Clouds,dailyrainin,SoftwareType,DateUTC
2013-07-31 00:03:00,70.7,47.7,29.80,ESE,112,0.0,-999.0,44,-99.99,,,0.00,Acu-Link.com,2013-07-31 05:03:00,
2013-07-31 00:18:00,70.7,47.7,29.79,SE,135,0.0,-999.0,44,-99.99,,,0.01,Acu-Link.com,2013-07-31 05:18:00,
2013-07-31 00:33:00,70.5,45.0,29.80,SE,135,5.8,-999.0,40,-99.99,,,0.01,Acu-Link.com,2013-07-31 05:33:00,
2013-07-31 00:48:00,70.5,45.0,29.80,SSE,157,3.7,-999.0,40,-99.99,,,0.01,Acu-Link.com,2013-07-31 05:48:00,
2013-07-31 01:03:00,70.7,46.5,29.80,SE,135,2.7,-999.0,42,-99.99,,,0.01,Acu-Link.com,2013-07-31 06:03:00,
2013-07-31 01:18:00,70.7,46.5,29.79,ESE,112,4.7,-999.0,42,-99.99,,,0.01,Acu-Link.com,2013-07-31 06:18:00,
2013-07-31 01:34:00,70.7,45.8,29.78,SE,135,3.2,-999.0,41,-99.99,,,0.01,Acu-Link.com,2013-07-31 06:34:00,
2013-07-31 01:49:00,70.7,45.2,29.78,ESE,112,5.8,-999.0,40,-99.99,,,0.01,Acu-Link.com,2013-07-31 06:49:00,
2013-07-31 02:04:00,70.7,45.2,29.78,ESE,112,5.3,-999.0,40,-99.99,,,0.01,Acu-Link.com,2013-07-31 07:04:00,
2013-07-31 02:19:00,70.7,45.2,29.77,SE,135,0.0,-999.0,40,-99.99,,,0.01,Acu-Link.com,2013-07-31 07:19:00,
2013-07-31 02:34:00,70.7,45.2,29.77,ESE,112,0.0,-999.0,40,-99.99,,,0.01,Acu-Link.com,2013-07-31 07:34:00,
2013-07-31 02:49:00,70.5,45.0,29.77,SE,135,0.0,-999.0,40,-99.99,,,0.01,Acu-Link.com,2013-07-31 07:49:00,
2013-07-31 03:04:00,70.5,45.0,29.77,SE,135,0.0,-999.0,40,-99.99,,,0.01,Acu-Link.com,2013-07-31 08:04:00,
2013-07-31 03:20:00,70.3,43.5,29.75,SE,135,4.2,-999.0,38,-99.99,,,0.01,Acu-Link.com,2013-07-31 08:20:00,
2013-07-31 03:35:00,70.2,42.0,29.75,ESE,112,5.8,-999.0,36,-99.99,,,0.01,Acu-Link.com,2013-07-31 08:35:00,
2013-07-31 03:50:00,70.0,41.8,29.75,ESE,112,3.7,-999.0,36,-99.99,,,0.01,Acu-Link.com,2013-07-31 08:50:00,
2013-07-31 04:05:00,70.0,41.8,29.75,SW,225,2.7,-999.0,36,-99.99,,,0.01,Acu-Link.com,2013-07-31 09:05:00,
2013-07-31 04:20:00,70.2,42.0,29.74,SE,135,2.7,-999.0,36,-99.99,,,0.01,Acu-Link.com,2013-07-31 09:20:00,
2013-07-31 04:35:00,70.2,42.0,29.74,SE,135,0.0,-999.0,36,-99.99,,,0.01,Acu-Link.com,2013-07-31 09:35:00,
2013-07-31 04:50:00,70.3,41.3,29.74,SSE,157,0.0,-999.0,35,-99.99,,,0.01,Acu-Link.com,2013-07-31 09:50:00,
2013-07-31 05:05:00,70.3,41.3,29.75,SSE,157,0.0,-999.0,35,-99.99,,,0.01,Acu-Link.com,2013-07-31 10:05:00,
2013-07-31 05:21:00,70.3,39.8,29.75,SE,135,0.0,-999.0,33,-99.99,,,0.01,Acu-Link.com,2013-07-31 10:21:00,
2013-07-31 05:36:00,70.5,39.2,29.75,South,180,0.0,-999.0,32,-99.99,,,0.01,Acu-Link.com,2013-07-31 10:36:00,
2013-07-31 05:51:00,70.5,38.4,29.75,SE,135,0.0,-999.0,31,-99.99,,,0.01,Acu-Link.com,2013-07-31 10:51:00,
2013-07-31 06:06:00,70.3,37.4,29.76,WSW,247,0.0,-999.0,30,-99.99,,,0.01,Acu-Link.com,2013-07-31 11:06:00,
2013-07-31 06:36:00,70.7,38.6,29.76,SE,135,0.0,-999.0,31,-99.99,,,0.01,Acu-Link.com,2013-07-31 11:36:00,
2013-07-31 06:51:00,71.1,38.9,29.76,SSE,157,0.0,-999.0,31,-99.99,,,0.01,Acu-Link.com,2013-07-31 11:51:00,
2013-07-31 07:06:00,71.6,40.2,29.77,SE,135,0.0,-999.0,32,-99.99,,,0.01,Acu-Link.com,2013-07-31 12:06:00,
2013-07-31 07:21:00,72.5,34.7,29.75,SE,135,2.7,-999.0,25,-99.99,,,0.01,Acu-Link.com,2013-07-31 12:21:00,
2013-07-31 07:52:00,73.0,72.4,29.75,SE,135,4.2,-999.0,98,-99.99,,,0.01,Acu-Link.com,2013-07-31 12:52:00,
2013-07-31 08:07:00,74.3,73.7,29.75,SSE,157,5.3,-999.0,98,-99.99,,,0.01,Acu-Link.com,2013-07-31 13:07:00,
2013-07-31 08:22:00,76.5,75.9,29.75,SSE,157,3.2,-999.0,98,-99.99,,,0.01,Acu-Link.com,2013-07-31 13:22:00,
2013-07-31 08:37:00,76.1,75.5,29.76,East,90,1.7,-999.0,98,-99.99,,,0.01,Acu-Link.com,2013-07-31 13:37:00,
2013-07-31 08:52:00,75.2,74.6,29.75,SE,135,3.2,-999.0,98,-99.99,,,0.01,Acu-Link.com,2013-07-31 13:52:00,
2013-07-31 09:07:00,76.1,75.5,29.74,ESE,112,2.2,-999.0,98,-99.99,,,0.01,Acu-Link.com,2013-07-31 14:07:00,
2013-07-31 09:22:00,76.1,75.5,29.74,SE,135,0.0,-999.0,98,-99.99,,,0.01,Acu-Link.com,2013-07-31 14:22:00,
2013-07-31 09:37:00,76.3,75.7,29.75,South,180,2.7,-999.0,98,-99.99,,,0.01,Acu-Link.com,2013-07-31 14:37:00,
2013-07-31 09:52:00,77.2,76.6,29.75,ENE,67,1.7,-999.0,98,-99.99,,,0.01,Acu-Link.com,2013-07-31 14:52:00,
2013-07-31 10:08:00,77.2,76.6,29.75,ESE,112,0.0,-999.0,98,-99.99,,,0.01,Acu-Link.com,2013-07-31 15:08:00,
2013-07-31 10:23:00,77.5,76.9,29.74,West,270,0.0,-999.0,98,-99.99,,,0.01,Acu-Link.com,2013-07-31 15:23:00,
2013-07-31 10:38:00,77.5,76.9,29.74,West,270,0.0,-999.0,98,-99.99,,,0.01,Acu-Link.com,2013-07-31 15:38:00,
2013-07-31 10:53:00,78.6,78.0,29.74,West,270,1.7,-999.0,98,-99.99,,,0.01,Acu-Link.com,2013-07-31 15:53:00,
2013-07-31 11:08:00,79.7,79.4,29.74,SE,135,2.2,-999.0,99,-99.99,,,0.01,Acu-Link.com,2013-07-31 16:08:00,
2013-07-31 11:23:00,80.1,79.5,29.73,ESE,112,2.2,-999.0,98,-99.99,,,0.01,Acu-Link.com,2013-07-31 16:23:00,
2013-07-31 11:38:00,81.1,80.8,29.73,East,90,2.2,-999.0,99,-99.99,,,0.01,Acu-Link.com,2013-07-31 16:38:00,
2013-07-31 11:53:00,81.3,81.0,29.74,NE,45,1.1,-999.0,99,-99.99,,,0.01,Acu-Link.com,2013-07-31 16:53:00,
2013-07-31 12:08:00,81.3,81.0,29.74,ENE,67,2.2,-999.0,99,-99.99,,,0.01,Acu-Link.com,2013-07-31 17:08:00,
2013-07-31 12:24:00,80.4,80.1,29.74,ESE,112,2.2,-999.0,99,-99.99,,,0.01,Acu-Link.com,2013-07-31 17:24:00,
2013-07-31 12:39:00,81.1,80.8,29.73,SE,135,3.7,-999.0,99,-99.99,,,0.01,Acu-Link.com,2013-07-31 17:39:00,
2013-07-31 12:54:00,80.8,80.5,29.72,SE,135,0.0,-999.0,99,-99.99,,,0.01,Acu-Link.com,2013-07-31 17:54:00,
2013-07-31 13:09:00,82.9,82.6,29.73,West,270,0.0,-999.0,99,-99.99,,,0.01,Acu-Link.com,2013-07-31 18:09:00,
2013-07-31 13:24:00,80.6,80.3,29.71,West,270,1.1,-999.0,99,-99.99,,,0.01,Acu-Link.com,2013-07-31 18:24:00,
2013-07-31 13:39:00,81.7,81.4,29.71,East,90,3.7,-999.0,99,-99.99,,,0.01,Acu-Link.com,2013-07-31 18:39:00,
2013-07-31 13:55:00,83.5,83.2,29.70,West,270,2.2,-999.0,99,-99.99,,,0.01,Acu-Link.com,2013-07-31 18:55:00,
2013-07-31 14:10:00,81.7,81.4,29.70,West,270,3.2,-999.0,99,-99.99,,,0.01,Acu-Link.com,2013-07-31 19:10:00,
2013-07-31 14:25:00,84.9,84.6,29.70,West,270,3.2,-999.0,99,-99.99,,,0.01,Acu-Link.com,2013-07-31 19:25:00,
2013-07-31 14:40:00,84.2,83.9,29.71,West,270,2.2,-999.0,99,-99.99,,,0.01,Acu-Link.com,2013-07-31 19:40:00,
2013-07-31 14:56:00,85.5,85.2,29.68,West,270,2.7,-999.0,99,-99.99,,,0.01,Acu-Link.com,2013-07-31 19:56:00,
2013-07-31 15:11:00,87.4,85.8,29.69,WNW,292,4.2,-999.0,95,-99.99,,,0.01,Acu-Link.com,2013-07-31 20:11:00,
2013-07-31 15:26:00,87.6,86.0,29.69,WNW,292,6.3,-999.0,95,-99.99,,,0.01,Acu-Link.com,2013-07-31 20:26:00,
2013-07-31 15:41:00,85.6,84.6,29.68,West,270,4.7,-999.0,97,-99.99,,,0.01,Acu-Link.com,2013-07-31 20:41:00,
2013-07-31 15:56:00,87.1,85.2,29.67,WNW,292,0.0,-999.0,94,-99.99,,,0.01,Acu-Link.com,2013-07-31 20:56:00,
2013-07-31 16:26:00,88.5,86.2,29.66,ESE,112,4.7,-999.0,93,-99.99,,,0.01,Acu-Link.com,2013-07-31 21:26:00,
2013-07-31 16:41:00,86.0,85.7,29.66,North,0,2.7,-999.0,99,-99.99,,,0.01,Acu-Link.com,2013-07-31 21:41:00,
2013-07-31 17:12:00,84.4,84.1,29.66,WNW,292,4.2,-999.0,99,-99.99,,,0.01,Acu-Link.com,2013-07-31 22:12:00,
2013-07-31 17:28:00,85.1,84.8,29.67,West,270,4.7,-999.0,99,-99.99,,,0.01,Acu-Link.com,2013-07-31 22:28:00,
2013-07-31 17:43:00,85.3,85.0,29.68,NNE,22,0.0,-999.0,99,-99.99,,,0.01,Acu-Link.com,2013-07-31 22:43:00,
2013-07-31 17:59:00,83.7,83.4,29.68,WNW,292,3.7,-999.0,99,-99.99,,,0.01,Acu-Link.com,2013-07-31 22:59:00,
2013-07-31 18:15:00,87.4,84.8,29.69,WNW,292,3.7,-999.0,92,-99.99,,,0.01,Acu-Link.com,2013-07-31 23:15:00,
2013-07-31 18:30:00,87.1,84.8,29.69,WNW,292,0.0,-999.0,93,-99.99,,,0.01,Acu-Link.com,2013-07-31 23:30:00,
2013-07-31 18:45:00,84.9,83.9,29.70,NW,315,0.0,-999.0,97,-99.99,,,0.01,Acu-Link.com,2013-07-31 23:45:00,
2013-07-31 19:00:00,84.2,83.6,29.69,NNE,22,2.7,-999.0,98,-99.99,,,0.01,Acu-Link.com,2013-08-01 00:00:00,
2013-07-31 19:15:00,83.1,82.5,29.69,NNE,22,0.0,-999.0,98,-99.99,,,0.01,Acu-Link.com,2013-08-01 00:15:00,
2013-07-31 19:30:00,82.4,82.1,29.70,East,90,2.2,-999.0,99,-99.99,,,0.01,Acu-Link.com,2013-08-01 00:30:00,
2013-07-31 19:45:00,80.6,80.3,29.70,NW,315,0.0,-999.0,99,-99.99,,,0.01,Acu-Link.com,2013-08-01 00:45:00,
2013-07-31 20:01:00,78.6,78.3,29.70,WNW,292,0.0,-999.0,99,-99.99,,,0.01,Acu-Link.com,2013-08-01 01:01:00,
2013-07-31 20:16:00,77.2,76.9,29.69,West,270,0.0,-999.0,99,-99.99,,,0.01,Acu-Link.com,2013-08-01 01:16:00,
2013-07-31 20:31:00,75.9,75.6,29.71,West,270,0.0,-999.0,99,-99.99,,,0.01,Acu-Link.com,2013-08-01 01:31:00,
2013-07-31 21:16:00,73.4,73.1,29.69,West,270,0.0,-999.0,99,-99.99,,,0.01,Acu-Link.com,2013-08-01 02:16:00,
2013-07-31 21:31:00,72.7,72.1,29.70,West,270,0.0,-999.0,98,-99.99,,,0.01,Acu-Link.com,2013-08-01 02:31:00,
2013-07-31 21:47:00,72.5,30.3,29.69,West,270,0.0,-999.0,21,-99.99,,,0.01,Acu-Link.com,2013-08-01 02:47:00,
2013-07-31 22:02:00,72.1,33.3,29.70,West,270,0.0,-999.0,24,-99.99,,,0.01,Acu-Link.com,2013-08-01 03:02:00,
2013-07-31 22:17:00,70.7,11.5,29.70,West,270,0.0,-999.0,10,-99.99,,,0.01,Acu-Link.com,2013-08-01 03:17:00,
2013-07-31 22:32:00,70.0,23.2,29.71,West,270,0.0,-999.0,17,-99.99,,,0.01,Acu-Link.com,2013-08-01 03:32:00,
2013-07-31 22:47:00,69.6,35.0,29.71,West,270,0.0,-999.0,28,-99.99,,,0.01,Acu-Link.com,2013-08-01 03:47:00,
2013-07-31 23:02:00,69.1,35.5,29.71,West,270,0.0,-999.0,29,-99.99,,,0.01,Acu-Link.com,2013-08-01 04:02:00,
2013-07-31 23:17:00,68.2,40.9,29.70,West,270,0.0,-999.0,37,-99.99,,,0.01,Acu-Link.com,2013-08-01 04:17:00,
2013-07-31 23:32:00,68.4,41.8,29.71,West,270,0.0,-999.0,38,-99.99,,,0.01,Acu-Link.com,2013-08-01 04:32:00,
2013-07-31 23:47:00,68.2,41.6,29.71,West,270,0.0,-999.0,38,-99.99,,,0.01,Acu-Link.com,2013-08-01 04:47:00,